Time;durP1;ratioP1;P1;durP2;ratioP2;P2;SDS_P1;SDS_P2;PMS_P1;PMS_P2;Temp;Humidity;BMP_temperature;BMP_pressure;BME280_temperature;BME280_humidity;BME280_pressure;Samples;Min_cycle;Max_cycle;Signal;HPM_P1;HPM_P2
2023/06/14 00:01:45;;;;;;;4.70;1.90;;;16.70;82.90;;;;;;5116007;27;20047;-70
2023/06/14 00:04:18;;;;;;;8.20;1.90;;;16.70;83.00;;;;;;5083876;27;20043;-70
2023/06/14 00:06:48;;;;;;;3.50;1.80;;;16.70;83.20;;;;;;5099000;27;20135;-71
2023/06/14 00:09:14;;;;;;;4.25;1.60;;;16.60;83.40;;;;;;5114498;27;20046;-71
2023/06/14 00:11:41;;;;;;;3.75;1.67;;;16.60;83.70;;;;;;5115043;27;20046;-71
2023/06/14 00:14:07;;;;;;;6.95;2.13;;;16.50;83.80;;;;;;5102063;27;20043;-71
2023/06/14 00:16:33;;;;;;;4.03;2.10;;;16.50;83.90;;;;;;5119764;27;20485;-69
2023/06/14 00:18:59;;;;;;;5.35;1.95;;;16.50;84.10;;;;;;5119050;27;20047;-70
2023/06/14 00:21:28;;;;;;;3.30;1.77;;;16.50;84.40;;;;;;5100020;27;20042;-70
2023/06/14 00:23:54;;;;;;;3.72;1.80;;;16.40;84.40;;;;;;5117138;27;20050;-71
2023/06/14 00:26:19;;;;;;;4.70;1.80;;;16.40;84.70;;;;;;5119278;27;20058;-69
2023/06/14 00:28:45;;;;;;;3.50;1.75;;;16.40;84.80;;;;;;5117904;27;20043;-70
2023/06/14 00:31:11;;;;;;;5.60;1.90;;;16.40;85.00;;;;;;5120170;27;20054;-69
2023/06/14 00:33:36;;;;;;;3.00;1.75;;;16.30;85.00;;;;;;5115935;27;20054;-70
2023/06/14 00:36:02;;;;;;;4.03;1.92;;;16.30;85.30;;;;;;5118817;27;20081;-70
2023/06/14 00:38:28;;;;;;;2.80;1.70;;;16.30;85.50;;;;;;5117786;27;20043;-70
2023/06/14 00:40:54;;;;;;;3.45;1.90;;;16.20;85.70;;;;;;5101791;27;20096;-70
2023/06/14 00:43:19;;;;;;;5.45;1.77;;;16.20;85.90;;;;;;5116463;27;20163;-72
2023/06/14 00:45:45;;;;;;;4.53;1.65;;;16.20;86.10;;;;;;5118777;27;20107;-71
2023/06/14 00:48:11;;;;;;;3.17;1.80;;;16.20;86.20;;;;;;5094584;27;20039;-70
2023/06/14 00:50:38;;;;;;;3.22;1.80;;;16.10;86.40;;;;;;5101651;27;20461;-71
2023/06/14 00:53:04;;;;;;;2.95;1.80;;;16.10;86.70;;;;;;5113160;27;20337;-71
2023/06/14 00:55:30;;;;;;;6.03;2.00;;;16.00;86.90;;;;;;5115959;27;20047;-71
2023/06/14 00:57:56;;;;;;;5.35;2.00;;;16.00;87.10;;;;;;5116285;27;20125;-70
2023/06/14 01:00:22;;;;;;;4.82;1.90;;;16.00;87.20;;;;;;5117974;27;20548;-70
2023/06/14 01:02:49;;;;;;;5.50;1.98;;;16.00;87.40;;;;;;5104808;27;20051;-70
2023/06/14 01:05:16;;;;;;;4.18;1.90;;;15.90;87.60;;;;;;5112897;27;20051;-72
2023/06/14 01:08:01;;;;;;;5.40;2.00;;;15.90;87.80;;;;;;5098387;27;20138;-69
2023/06/14 01:10:56;;;;;;;3.45;1.88;;;15.90;88.10;;;;;;5115671;27;20747;-70
2023/06/14 01:13:30;;;;;;;4.13;2.03;;;15.90;88.40;;;;;;5084211;27;20119;-70
2023/06/14 01:15:56;;;;;;;3.38;1.80;;;15.80;88.60;;;;;;5113412;27;20393;-70
2023/06/14 01:18:24;;;;;;;7.88;2.20;;;15.80;88.80;;;;;;5119478;27;20043;-70
2023/06/14 01:20:50;;;;;;;5.03;1.80;;;15.80;89.10;;;;;;5116243;27;20100;-70
2023/06/14 01:23:17;;;;;;;4.22;2.00;;;15.70;89.40;;;;;;5115012;27;20057;-70
2023/06/14 01:25:44;;;;;;;3.83;1.73;;;15.70;89.60;;;;;;5097797;27;20608;-70
2023/06/14 01:28:12;;;;;;;4.40;1.90;;;15.70;90.00;;;;;;5101494;27;20065;-70
2023/06/14 01:30:42;;;;;;;6.03;1.73;;;15.60;90.10;;;;;;5117214;27;20069;-71
2023/06/14 01:33:08;;;;;;;4.60;1.98;;;15.60;90.20;;;;;;5116549;27;20042;-72
2023/06/14 01:35:35;;;;;;;4.28;1.63;;;15.60;90.30;;;;;;5099174;27;20539;-71
2023/06/14 01:38:02;;;;;;;4.40;2.10;;;15.60;90.50;;;;;;5117619;27;20176;-71
2023/06/14 01:40:28;;;;;;;2.75;1.75;;;15.60;90.60;;;;;;5118315;27;20049;-71
2023/06/14 01:42:54;;;;;;;3.28;1.73;;;15.60;90.80;;;;;;5100091;27;20043;-72
2023/06/14 01:45:21;;;;;;;3.78;1.60;;;15.50;90.90;;;;;;5084398;27;20072;-70
2023/06/14 01:47:48;;;;;;;4.03;1.90;;;15.50;91.10;;;;;;5098698;27;20055;-69
2023/06/14 01:50:13;;;;;;;7.50;2.10;;;15.50;91.20;;;;;;5116972;27;20693;-70
2023/06/14 01:52:39;;;;;;;3.20;1.90;;;15.40;91.20;;;;;;5100926;27;20079;-70
2023/06/14 01:55:06;;;;;;;5.50;1.77;;;15.40;91.40;;;;;;5117052;27;20042;-70
2023/06/14 01:57:32;;;;;;;3.80;1.70;;;15.40;91.50;;;;;;5131284;27;20051;-71
2023/06/14 01:59:57;;;;;;;3.33;1.80;;;15.40;91.50;;;;;;5080825;27;20047;-71
2023/06/14 02:02:23;;;;;;;3.80;1.95;;;15.40;91.70;;;;;;5098230;27;20530;-71
2023/06/14 02:04:49;;;;;;;4.03;1.60;;;15.40;92.10;;;;;;5115731;27;20613;-70
2023/06/14 02:07:14;;;;;;;4.80;1.83;;;15.30;91.80;;;;;;5111442;27;20054;-71
2023/06/14 02:09:43;;;;;;;2.95;1.70;;;15.30;91.90;;;;;;5111733;27;20055;-70
2023/06/14 02:12:10;;;;;;;3.80;1.60;;;15.30;92.00;;;;;;5095152;27;20043;-70
2023/06/14 02:14:36;;;;;;;3.97;2.08;;;15.30;92.20;;;;;;5121003;27;20049;-70
2023/06/14 02:17:02;;;;;;;6.15;1.60;;;15.20;92.30;;;;;;5112818;27;20063;-70
2023/06/14 02:19:27;;;;;;;2.67;1.40;;;15.20;92.50;;;;;;5133709;27;20512;-71
2023/06/14 02:21:53;;;;;;;3.58;1.63;;;15.20;92.50;;;;;;5134776;27;20122;-71
2023/06/14 02:24:19;;;;;;;4.47;1.85;;;15.20;92.60;;;;;;5095265;27;20050;-71
2023/06/14 02:26:45;;;;;;;3.05;1.60;;;15.10;92.70;;;;;;5115861;27;20074;-70
2023/06/14 02:29:14;;;;;;;5.03;1.63;;;15.10;92.70;;;;;;5114742;27;20515;-70
2023/06/14 02:31:40;;;;;;;3.15;1.80;;;15.10;92.80;;;;;;5116259;27;20054;-71
2023/06/14 02:34:08;;;;;;;3.72;1.48;;;15.10;93.00;;;;;;5113971;27;20046;-70
2023/06/14 02:36:35;;;;;;;3.55;1.73;;;15.10;93.10;;;;;;5099813;27;20061;-69
2023/06/14 02:39:00;;;;;;;6.88;1.83;;;15.00;93.10;;;;;;5116565;27;20388;-70
2023/06/14 02:41:27;;;;;;;3.08;1.77;;;15.00;93.20;;;;;;5115527;27;20050;-69
2023/06/14 02:43:53;;;;;;;3.90;1.80;;;15.00;93.30;;;;;;5115612;27;20042;-70
2023/06/14 02:46:20;;;;;;;3.80;1.80;;;15.00;93.30;;;;;;5118022;27;20062;-69
2023/06/14 02:48:45;;;;;;;5.57;1.70;;;15.00;93.30;;;;;;5102214;27;20062;-71
2023/06/14 02:51:12;;;;;;;4.00;1.85;;;14.90;93.40;;;;;;5095222;27;20039;-70
2023/06/14 02:53:40;;;;;;;5.55;1.70;;;14.90;93.60;;;;;;5109715;27;20043;-71
2023/06/14 02:56:06;;;;;;;4.22;1.88;;;14.90;93.60;;;;;;5083753;27;20050;-70
2023/06/14 02:58:32;;;;;;;4.68;2.00;;;14.90;93.70;;;;;;5116604;27;20061;-70
2023/06/14 03:01:03;;;;;;;3.00;1.80;;;14.90;93.80;;;;;;5114666;27;20077;-71
2023/06/14 03:03:31;;;;;;;4.40;1.77;;;14.80;93.90;;;;;;5116694;27;20515;-70
2023/06/14 03:05:57;;;;;;;6.40;2.00;;;14.80;94.00;;;;;;5114715;27;20054;-70
2023/06/14 03:08:27;;;;;;;4.78;1.90;;;14.80;94.10;;;;;;5115097;27;20043;-70
2023/06/14 03:10:53;;;;;;;3.65;2.10;;;14.80;94.10;;;;;;5115683;27;20046;-70
2023/06/14 03:13:22;;;;;;;3.00;1.85;;;14.70;94.20;;;;;;5129345;27;20047;-71
2023/06/14 03:15:50;;;;;;;6.03;1.92;;;14.80;94.30;;;;;;5112931;27;20046;-70
2023/06/14 03:18:16;;;;;;;2.97;1.70;;;14.70;94.30;;;;;;5114721;27;20046;-69
2023/06/14 03:20:42;;;;;;;2.55;1.70;;;14.70;94.40;;;;;;5115554;27;20436;-70
2023/06/14 03:23:08;;;;;;;3.33;1.83;;;14.70;94.60;;;;;;5095128;27;20049;-69
2023/06/14 03:25:38;;;;;;;5.80;1.80;;;14.70;94.60;;;;;;5098266;27;20154;-70
2023/06/14 03:28:07;;;;;;;5.18;2.10;;;14.70;94.60;;;;;;5095570;27;20552;-70
2023/06/14 03:30:33;;;;;;;4.13;2.00;;;14.70;94.80;;;;;;5115606;27;20134;-69
2023/06/14 03:33:00;;;;;;;5.15;1.95;;;14.70;94.80;;;;;;5111582;27;20126;-70
2023/06/14 03:35:28;;;;;;;7.00;1.85;;;14.60;94.90;;;;;;5112850;27;20516;-69
2023/06/14 03:37:54;;;;;;;5.13;1.90;;;14.70;95.00;;;;;;5102934;27;20062;-70
2023/06/14 03:40:21;;;;;;;3.83;1.90;;;14.70;95.00;;;;;;5079372;27;20043;-71
2023/06/14 03:42:47;;;;;;;3.47;1.90;;;14.70;95.10;;;;;;5112316;27;20050;-70
2023/06/14 03:45:13;;;;;;;5.57;1.95;;;14.70;95.20;;;;;;5093927;27;20055;-70
2023/06/14 03:47:39;;;;;;;7.20;1.95;;;14.60;95.20;;;;;;5094639;27;20489;-70
2023/06/14 03:50:05;;;;;;;7.47;2.10;;;14.70;95.30;;;;;;5089858;27;20039;-72
2023/06/14 03:52:32;;;;;;;2.90;1.70;;;14.70;95.40;;;;;;5109855;27;20049;-71
2023/06/14 03:55:00;;;;;;;3.95;2.08;;;14.70;95.50;;;;;;5108682;27;20165;-72
2023/06/14 03:57:27;;;;;;;4.70;2.13;;;14.70;95.50;;;;;;5112447;27;20122;-71
2023/06/14 03:59:57;;;;;;;3.30;2.10;;;14.70;95.60;;;;;;5111933;27;20038;-72
2023/06/14 04:02:23;;;;;;;5.65;2.13;;;14.70;95.70;;;;;;5094308;27;20039;-72
2023/06/14 04:04:49;;;;;;;5.53;1.85;;;14.70;95.70;;;;;;5091084;27;20072;-70
2023/06/14 04:07:20;;;;;;;4.00;2.08;;;14.70;95.80;;;;;;5103807;27;20043;-69
2023/06/14 04:09:47;;;;;;;4.88;2.03;;;14.70;95.90;;;;;;5080064;27;20039;-69
2023/06/14 04:12:12;;;;;;;3.88;2.10;;;14.80;95.90;;;;;;5091163;27;20042;-70
2023/06/14 04:14:42;;;;;;;3.05;1.70;;;14.80;96.00;;;;;;5130812;27;20119;-69
2023/06/14 04:17:08;;;;;;;6.22;2.28;;;14.70;96.10;;;;;;5075270;27;20054;-72
2023/06/14 04:19:42;;;;;;;2.83;1.88;;;14.70;96.10;;;;;;5095718;27;20138;-70
2023/06/14 04:22:11;;;;;;;3.65;2.03;;;15.00;96.30;;;;;;5108703;27;20038;-71
2023/06/14 04:24:36;;;;;;;3.95;2.03;;;14.80;96.30;;;;;;5124669;27;20055;-71
2023/06/14 04:27:14;;;;;;;5.63;2.08;;;14.80;96.30;;;;;;5093996;27;20071;-71
2023/06/14 04:29:53;;;;;;;3.97;2.30;;;14.80;96.40;;;;;;5095582;27;20080;-71
2023/06/14 04:32:21;;;;;;;5.47;2.55;;;14.90;96.60;;;;;;5091408;27;20050;-71
2023/06/14 04:34:47;;;;;;;6.07;2.50;;;14.90;96.40;;;;;;5110950;27;20056;-70
2023/06/14 04:37:13;;;;;;;3.75;2.22;;;15.00;96.50;;;;;;5110897;27;20558;-70
2023/06/14 04:39:44;;;;;;;6.07;2.58;;;15.00;96.50;;;;;;5077984;27;20161;-71
2023/06/14 04:42:14;;;;;;;2.90;2.00;;;15.00;96.60;;;;;;5108295;27;20516;-71
2023/06/14 04:44:43;;;;;;;4.00;2.15;;;15.10;96.60;;;;;;5091527;27;20062;-72
2023/06/14 04:47:12;;;;;;;5.15;2.33;;;15.00;96.70;;;;;;5110342;27;20047;-71
2023/06/14 04:49:41;;;;;;;4.72;2.15;;;15.10;96.70;;;;;;5128462;27;20051;-72
2023/06/14 04:52:10;;;;;;;4.53;2.40;;;15.10;96.70;;;;;;5110336;27;20068;-72
2023/06/14 04:54:42;;;;;;;5.07;2.30;;;15.20;96.80;;;;;;5087625;27;20043;-72
2023/06/14 04:57:17;;;;;;;6.57;2.40;;;15.20;96.80;;;;;;5096107;27;20066;-71
2023/06/14 04:59:43;;;;;;;5.13;2.30;;;15.20;96.70;;;;;;5064258;27;20211;-73
2023/06/14 05:02:12;;;;;;;7.13;2.47;;;15.30;96.80;;;;;;5091829;27;20034;-70
2023/06/14 05:04:39;;;;;;;3.40;2.13;;;15.30;96.90;;;;;;5111172;27;20042;-71
2023/06/14 05:07:08;;;;;;;5.95;2.38;;;15.40;97.00;;;;;;5115439;27;20046;-71
2023/06/14 05:09:38;;;;;;;3.30;2.28;;;15.40;97.00;;;;;;5105975;27;20051;-71
2023/06/14 05:12:04;;;;;;;3.63;2.30;;;15.50;97.00;;;;;;5091006;27;20860;-70
2023/06/14 05:14:31;;;;;;;5.10;2.33;;;15.60;97.00;;;;;;5100256;27;20586;-70
2023/06/14 05:16:57;;;;;;;5.63;2.38;;;15.60;97.00;;;;;;5093895;27;20171;-69
2023/06/14 05:19:22;;;;;;;4.43;2.40;;;15.70;97.00;;;;;;5057226;27;20121;-71
2023/06/14 05:21:49;;;;;;;3.67;2.28;;;15.80;97.00;;;;;;5106630;27;20501;-71
2023/06/14 05:24:17;;;;;;;4.45;2.35;;;15.80;97.00;;;;;;5075343;27;20093;-71
2023/06/14 05:26:43;;;;;;;3.78;2.42;;;15.90;97.00;;;;;;5092161;27;20042;-71
2023/06/14 05:29:15;;;;;;;3.60;2.20;;;16.00;96.90;;;;;;5062320;27;20095;-71
2023/06/14 05:31:42;;;;;;;3.63;2.50;;;16.10;96.90;;;;;;5088620;27;20047;-69
2023/06/14 05:34:07;;;;;;;4.00;2.28;;;16.20;96.90;;;;;;5087702;27;20493;-69
2023/06/14 05:36:33;;;;;;;4.78;2.30;;;16.30;96.90;;;;;;5103621;27;20342;-69
2023/06/14 05:39:06;;;;;;;4.55;2.50;;;16.40;96.80;;;;;;5096857;27;20087;-69
2023/06/14 05:41:32;;;;;;;5.88;2.50;;;16.50;96.80;;;;;;5108446;27;20046;-67
2023/06/14 05:43:59;;;;;;;5.40;2.47;;;16.60;96.70;;;;;;5105545;27;20091;-69
2023/06/14 05:46:25;;;;;;;6.13;2.50;;;16.80;96.60;;;;;;5092179;27;20059;-70
2023/06/14 05:48:55;;;;;;;6.22;2.70;;;16.90;96.50;;;;;;5105600;27;20083;-70
2023/06/14 05:51:21;;;;;;;5.55;2.70;;;16.90;96.40;;;;;;5105160;27;20161;-70
2023/06/14 05:53:48;;;;;;;7.10;2.78;;;17.20;96.30;;;;;;5110635;27;20066;-70
2023/06/14 05:56:14;;;;;;;6.35;2.70;;;17.30;96.20;;;;;;5092109;27;20040;-71
2023/06/14 05:58:41;;;;;;;6.22;2.50;;;17.40;96.00;;;;;;5066028;27;20486;-72
2023/06/14 06:01:07;;;;;;;4.88;2.50;;;17.60;96.00;;;;;;5106802;27;20473;-71
2023/06/14 06:03:39;;;;;;;3.58;2.50;;;17.70;95.90;;;;;;5105662;27;20089;-70
2023/06/14 06:06:05;;;;;;;5.07;2.50;;;17.90;95.60;;;;;;5103178;27;20133;-71
2023/06/14 06:08:32;;;;;;;4.22;2.60;;;18.00;95.30;;;;;;5111417;27;20129;-72
2023/06/14 06:10:58;;;;;;;3.88;2.38;;;18.10;95.00;;;;;;5097770;27;20097;-68
2023/06/14 06:13:23;;;;;;;5.53;2.05;;;18.30;94.90;;;;;;5115422;27;20039;-70
2023/06/14 06:15:49;;;;;;;5.22;2.20;;;18.40;94.60;;;;;;5098118;27;20073;-68
2023/06/14 06:18:15;;;;;;;4.35;2.38;;;18.50;94.30;;;;;;5098131;27;20073;-70
2023/06/14 06:20:41;;;;;;;5.28;2.80;;;18.60;94.00;;;;;;5115698;27;20089;-70
2023/06/14 06:23:07;;;;;;;4.45;2.28;;;18.80;93.80;;;;;;5083126;27;20117;-72
2023/06/14 06:25:33;;;;;;;4.70;2.35;;;18.90;93.60;;;;;;5098881;27;20117;-72
2023/06/14 06:27:59;;;;;;;7.90;2.85;;;19.00;93.30;;;;;;5135733;27;20130;-73
2023/06/14 06:30:28;;;;;;;6.82;2.50;;;19.10;93.20;;;;;;5117240;27;20053;-73
2023/06/14 06:33:03;;;;;;;3.50;2.25;;;19.20;93.20;;;;;;5102392;27;20054;-69
2023/06/14 06:35:30;;;;;;;4.63;2.60;;;19.40;92.90;;;;;;5096177;27;20090;-69
2023/06/14 06:37:56;;;;;;;7.82;2.30;;;19.60;92.70;;;;;;5098868;27;20046;-70
2023/06/14 06:40:22;;;;;;;4.70;2.42;;;19.80;92.50;;;;;;5117455;27;20043;-70
2023/06/14 06:42:49;;;;;;;4.43;2.50;;;20.00;92.30;;;;;;5116026;27;20043;-70
2023/06/14 06:45:15;;;;;;;5.47;2.40;;;20.10;92.10;;;;;;5112508;27;20952;-70
2023/06/14 06:47:41;;;;;;;4.50;2.40;;;20.30;91.90;;;;;;5099527;27;20058;-70
2023/06/14 06:50:07;;;;;;;4.13;2.50;;;20.50;91.70;;;;;;5099820;27;20046;-71
2023/06/14 06:52:33;;;;;;;4.75;2.65;;;20.70;91.50;;;;;;5115624;27;20449;-70
2023/06/14 06:54:59;;;;;;;4.88;2.28;;;20.80;91.10;;;;;;5099235;27;20107;-70
2023/06/14 06:57:24;;;;;;;4.60;2.50;;;21.00;90.70;;;;;;5116802;27;20070;-70
2023/06/14 06:59:50;;;;;;;6.60;2.70;;;21.10;90.40;;;;;;5099035;27;20051;-71
2023/06/14 07:02:16;;;;;;;3.83;2.30;;;21.10;90.10;;;;;;5100517;27;20039;-70
2023/06/14 07:04:42;;;;;;;7.38;2.78;;;21.30;89.80;;;;;;5115218;27;20057;-70
2023/06/14 07:07:09;;;;;;;5.43;2.30;;;21.50;89.70;;;;;;5115599;27;20046;-69
2023/06/14 07:09:36;;;;;;;5.90;2.47;;;21.60;89.20;;;;;;5101174;27;20068;-69
2023/06/14 07:12:01;;;;;;;4.07;2.20;;;21.80;88.70;;;;;;5099539;27;20488;-70
2023/06/14 07:14:27;;;;;;;7.53;2.58;;;22.00;88.30;;;;;;5097953;27;20130;-69
2023/06/14 07:16:53;;;;;;;5.90;2.10;;;22.10;87.70;;;;;;5115656;27;20054;-70
2023/06/14 07:19:19;;;;;;;4.32;2.15;;;22.30;87.30;;;;;;5117265;27;20039;-70
2023/06/14 07:21:45;;;;;;;3.83;2.10;;;22.50;86.70;;;;;;5085082;27;20050;-69
2023/06/14 07:24:10;;;;;;;4.50;2.10;;;22.60;85.50;;;;;;5117346;27;20446;-69
2023/06/14 07:26:36;;;;;;;4.30;2.20;;;22.70;84.70;;;;;;5083899;27;20070;-70
2023/06/14 07:29:02;;;;;;;4.72;2.47;;;22.80;84.60;;;;;;5116052;27;20077;-70
2023/06/14 07:31:28;;;;;;;3.83;1.80;;;23.00;84.30;;;;;;5102503;27;20123;-72
2023/06/14 07:33:54;;;;;;;6.07;1.92;;;23.10;83.40;;;;;;5116684;27;20457;-70
2023/06/14 07:36:19;;;;;;;6.90;1.88;;;23.20;82.50;;;;;;5116442;27;20448;-71
2023/06/14 07:38:46;;;;;;;4.65;2.17;;;23.20;81.60;;;;;;5100721;27;20070;-69
2023/06/14 07:41:12;;;;;;;4.07;1.70;;;23.40;81.50;;;;;;5103708;27;20126;-71
2023/06/14 07:43:37;;;;;;;3.92;2.00;;;23.60;81.20;;;;;;5100048;27;20433;-70
2023/06/14 07:46:04;;;;;;;3.58;1.55;;;23.70;80.40;;;;;;5119013;27;20621;-69
2023/06/14 07:48:30;;;;;;;4.28;1.95;;;23.80;79.80;;;;;;5097467;27;20051;-69
2023/06/14 07:50:55;;;;;;;5.25;1.63;;;24.00;79.50;;;;;;5118378;27;20065;-70
2023/06/14 07:53:21;;;;;;;6.22;1.52;;;24.20;79.70;;;;;;5085927;27;20469;-70
2023/06/14 07:55:48;;;;;;;8.25;1.80;;;24.30;78.60;;;;;;5116005;27;20137;-71
2023/06/14 07:58:14;;;;;;;2.88;1.52;;;24.40;77.70;;;;;;5116312;27;20047;-71
2023/06/14 08:00:40;;;;;;;2.38;1.58;;;24.50;77.10;;;;;;5116062;27;20039;-70
2023/06/14 08:03:05;;;;;;;2.65;1.65;;;24.50;76.70;;;;;;5099228;27;20088;-69
2023/06/14 08:05:31;;;;;;;3.55;1.55;;;24.60;76.40;;;;;;5118057;27;20084;-71
2023/06/14 08:07:57;;;;;;;3.40;1.67;;;24.70;76.20;;;;;;5135535;27;20533;-70
2023/06/14 08:10:23;;;;;;;2.10;1.50;;;24.70;75.90;;;;;;5101192;27;20047;-70
2023/06/14 08:12:52;;;;;;;3.63;1.50;;;25.00;76.10;;;;;;5099290;27;20043;-70
2023/06/14 08:15:18;;;;;;;3.92;1.50;;;25.20;75.10;;;;;;5117322;27;20046;-70
2023/06/14 08:17:44;;;;;;;3.80;1.58;;;25.40;75.00;;;;;;5100847;27;20062;-70
2023/06/14 08:20:11;;;;;;;4.47;1.77;;;25.50;74.30;;;;;;5097201;27;20124;-70
2023/06/14 08:22:37;;;;;;;5.20;1.92;;;25.60;74.10;;;;;;5100491;27;20035;-71
2023/06/14 08:25:03;;;;;;;3.20;1.48;;;25.80;74.00;;;;;;5114947;27;20386;-71
2023/06/14 08:27:29;;;;;;;2.60;1.70;;;25.90;73.20;;;;;;5113357;27;20146;-69
2023/06/14 08:29:56;;;;;;;4.70;1.58;;;26.10;73.00;;;;;;5112866;27;20054;-68
2023/06/14 08:32:22;;;;;;;3.45;1.40;;;26.30;72.40;;;;;;5114042;27;20121;-68
2023/06/14 08:34:48;;;;;;;3.05;1.60;;;26.50;71.90;;;;;;5117847;27;20043;-68
2023/06/14 08:37:13;;;;;;;3.33;1.80;;;26.70;71.40;;;;;;5101053;27;20058;-68
2023/06/14 08:39:39;;;;;;;4.57;1.45;;;26.90;71.60;;;;;;5136484;27;20100;-70
2023/06/14 08:42:07;;;;;;;3.97;1.40;;;27.20;71.40;;;;;;5120667;27;20043;-67
2023/06/14 08:44:33;;;;;;;3.80;1.60;;;27.40;70.70;;;;;;5096285;27;20043;-68
2023/06/14 08:47:03;;;;;;;3.08;1.35;;;27.60;70.10;;;;;;5134621;27;20116;-68
2023/06/14 08:49:30;;;;;;;5.07;1.60;;;27.60;69.30;;;;;;5106749;27;20055;-68
2023/06/14 08:52:00;;;;;;;2.05;1.30;;;27.70;69.50;;;;;;5073268;27;20047;-67
2023/06/14 08:54:30;;;;;;;3.15;1.50;;;27.80;69.20;;;;;;5121286;27;20579;-68
2023/06/14 08:56:59;;;;;;;3.63;1.55;;;28.00;68.60;;;;;;5101304;27;20043;-67
2023/06/14 08:59:28;;;;;;;4.50;1.48;;;28.20;68.40;;;;;;5111454;27;20196;-66
2023/06/14 09:01:54;;;;;;;4.10;1.90;;;28.20;67.50;;;;;;5117942;27;20055;-68
2023/06/14 09:04:29;;;;;;;3.65;1.67;;;28.40;67.90;;;;;;5118714;27;20058;-69
2023/06/14 09:06:55;;;;;;;3.87;1.50;;;28.40;66.90;;;;;;5100872;27;20043;-68
2023/06/14 09:09:22;;;;;;;2.50;1.45;;;28.50;67.50;;;;;;5102404;27;20362;-66
2023/06/14 09:11:50;;;;;;;2.83;1.60;;;28.70;67.10;;;;;;5118945;27;20051;-67
2023/06/14 09:14:16;;;;;;;7.35;1.70;;;28.90;66.60;;;;;;5120809;27;20121;-68
2023/06/14 09:16:41;;;;;;;5.07;1.70;;;29.10;66.20;;;;;;5082027;27;20481;-68
2023/06/14 09:19:07;;;;;;;3.78;1.67;;;29.10;65.30;;;;;;5112480;27;20050;-68
2023/06/14 09:21:37;;;;;;;3.72;1.55;;;29.00;65.00;;;;;;5097417;27;20131;-69
2023/06/14 09:24:04;;;;;;;5.05;1.88;;;29.30;64.00;;;;;;5111081;27;20042;-68
2023/06/14 09:26:30;;;;;;;3.30;1.80;;;29.20;64.00;;;;;;5110619;27;20042;-67
2023/06/14 09:28:55;;;;;;;3.28;1.73;;;29.30;63.30;;;;;;5109782;27;20043;-68
2023/06/14 09:31:24;;;;;;;3.97;1.63;;;29.30;63.00;;;;;;5077716;27;20051;-68
2023/06/14 09:33:51;;;;;;;6.03;1.45;;;29.20;63.00;;;;;;5107677;27;20051;-68
2023/06/14 09:36:26;;;;;;;4.00;1.73;;;29.10;62.60;;;;;;5096100;27;20129;-67
2023/06/14 09:38:59;;;;;;;6.10;1.70;;;29.10;61.90;;;;;;5100050;27;20111;-67
2023/06/14 09:41:35;;;;;;;3.08;1.38;;;29.20;62.80;;;;;;5116207;27;20055;-66
2023/06/14 09:44:04;;;;;;;3.80;1.70;;;29.50;63.30;;;;;;5113550;27;20062;-67
2023/06/14 09:46:30;;;;;;;2.78;1.70;;;29.60;62.90;;;;;;5110479;27;20051;-67
2023/06/14 09:48:57;;;;;;;3.17;1.60;;;29.70;62.50;;;;;;5112731;27;20165;-68
2023/06/14 09:51:24;;;;;;;3.83;1.50;;;29.70;62.20;;;;;;5108255;27;20050;-67
2023/06/14 09:53:50;;;;;;;2.55;1.50;;;29.90;62.50;;;;;;5124812;27;20931;-68
2023/06/14 09:56:23;;;;;;;6.05;1.75;;;30.20;62.70;;;;;;5104407;27;20130;-68
2023/06/14 09:58:53;;;;;;;5.70;1.60;;;30.30;61.20;;;;;;5108012;27;20455;-68
2023/06/14 10:01:20;;;;;;;3.35;1.80;;;30.40;61.90;;;;;;5109243;27;20520;-68
2023/06/14 10:03:48;;;;;;;8.15;1.65;;;30.70;61.60;;;;;;5106881;27;20431;-68
2023/06/14 10:06:15;;;;;;;2.85;1.60;;;30.90;61.40;;;;;;5110889;27;20046;-68
2023/06/14 10:08:41;;;;;;;3.70;1.75;;;31.30;61.50;;;;;;5107258;27;20054;-68
2023/06/14 10:11:06;;;;;;;4.75;1.70;;;31.50;61.00;;;;;;5105550;27;20047;-67
2023/06/14 10:13:34;;;;;;;2.63;1.45;;;31.70;60.60;;;;;;5106658;27;20464;-68
2023/06/14 10:16:23;;;;;;;4.13;1.60;;;31.80;60.00;;;;;;5104182;27;20043;-69
2023/06/14 10:19:21;;;;;;;2.95;1.40;;;31.70;58.50;;;;;;5106310;27;20051;-68
2023/06/14 10:22:07;;;;;;;3.38;1.52;;;31.60;58.30;;;;;;5109183;27;20086;-67
2023/06/14 10:24:42;;;;;;;2.65;1.40;;;31.50;58.40;;;;;;5103764;27;20504;-68
2023/06/14 10:27:11;;;;;;;3.50;1.70;;;31.70;59.00;;;;;;5108237;27;20121;-68
2023/06/14 10:29:58;;;;;;;4.60;1.92;;;31.90;58.60;;;;;;5075052;27;20108;-68
2023/06/14 10:32:30;;;;;;;3.15;1.63;;;32.40;57.50;;;;;;5105119;27;20051;-67
2023/06/14 10:35:09;;;;;;;4.47;1.60;;;32.40;57.30;;;;;;5093769;27;20055;-68
2023/06/14 10:37:35;;;;;;;3.47;1.60;;;32.60;57.70;;;;;;5108346;27;20042;-68
2023/06/14 10:40:02;;;;;;;5.25;1.67;;;32.50;57.30;;;;;;5075745;27;20058;-68
2023/06/14 10:42:31;;;;;;;4.38;1.60;;;32.60;57.60;;;;;;5091004;27;20521;-69
2023/06/14 10:45:01;;;;;;;2.85;1.60;;;32.80;57.50;;;;;;5104153;27;20426;-67
2023/06/14 10:47:30;;;;;;;5.43;1.30;;;33.10;57.30;;;;;;5097131;27;20508;-67
2023/06/14 10:50:02;;;;;;;6.22;1.40;;;33.00;56.70;;;;;;5111766;27;20039;-67
2023/06/14 10:52:29;;;;;;;2.28;1.23;;;32.80;56.00;;;;;;5097339;27;20081;-67
2023/06/14 10:55:09;;;;;;;4.07;1.70;;;32.80;56.60;;;;;;5099337;27;20060;-68
2023/06/14 10:57:36;;;;;;;3.92;1.50;;;32.60;55.50;;;;;;5098220;27;20164;-68
2023/06/14 11:00:12;;;;;;;4.30;1.40;;;32.30;56.10;;;;;;5114730;27;20117;-68
2023/06/14 11:03:09;;;;;;;3.55;1.33;;;32.20;56.20;;;;;;5109138;27;20054;-67
2023/06/14 11:05:47;;;;;;;4.20;1.35;;;32.30;56.60;;;;;;5112890;27;20670;-68
2023/06/14 11:08:25;;;;;;;4.15;1.50;;;32.50;55.70;;;;;;5114765;27;20035;-68
2023/06/14 11:10:53;;;;;;;5.78;1.30;;;32.40;55.30;;;;;;5115202;27;20047;-68
2023/06/14 11:13:19;;;;;;;3.72;1.50;;;32.50;56.00;;;;;;5112585;27;20049;-68
2023/06/14 11:15:47;;;;;;;5.95;1.40;;;32.60;55.90;;;;;;5114173;27;20054;-68
2023/06/14 11:18:14;;;;;;;2.58;1.30;;;32.70;55.60;;;;;;5112338;27;20047;-67
2023/06/14 11:20:40;;;;;;;4.40;1.35;;;32.70;55.20;;;;;;5097867;27;20502;-68
2023/06/14 11:23:06;;;;;;;3.45;1.30;;;32.90;54.80;;;;;;5094197;27;20082;-67
2023/06/14 11:25:32;;;;;;;3.92;1.50;;;32.90;54.60;;;;;;5114313;27;20061;-68
2023/06/14 11:27:58;;;;;;;3.05;1.40;;;33.00;54.30;;;;;;5101670;27;20486;-68
2023/06/14 11:30:27;;;;;;;3.65;1.20;;;33.10;54.70;;;;;;5114409;27;20099;-67
2023/06/14 11:32:54;;;;;;;4.32;1.50;;;33.20;55.00;;;;;;5113156;27;20068;-69
2023/06/14 11:35:25;;;;;;;3.58;1.50;;;33.30;55.00;;;;;;5115985;27;20043;-69
2023/06/14 11:37:57;;;;;;;3.55;1.58;;;33.50;53.70;;;;;;5113067;27;20083;-68
2023/06/14 11:40:27;;;;;;;4.43;1.50;;;33.50;54.40;;;;;;5082691;27;20122;-68
2023/06/14 11:43:02;;;;;;;2.72;1.50;;;33.30;54.20;;;;;;5114502;27;20057;-66
2023/06/14 11:45:29;;;;;;;;;;;33.00;53.70;;;;;;5114266;27;20126;-67
2023/06/14 11:47:56;;;;;;;3.83;1.48;;;32.80;54.00;;;;;;5098181;27;19952;-67
2023/06/14 11:50:22;;;;;;;3.30;1.40;;;32.70;55.40;;;;;;5114702;27;20416;-67
2023/06/14 11:53:03;;;;;;;4.78;1.52;;;32.40;55.70;;;;;;5097392;27;20046;-67
2023/06/14 11:55:29;;;;;;;3.40;1.50;;;32.50;55.10;;;;;;5113831;27;20055;-68
2023/06/14 11:57:55;;;;;;;2.67;1.70;;;32.70;56.00;;;;;;5099342;27;20058;-65
2023/06/14 12:00:25;;;;;;;5.32;1.65;;;32.90;55.70;;;;;;5118946;27;20043;-67
2023/06/14 12:02:58;;;;;;;4.97;1.77;;;33.10;55.00;;;;;;5136861;27;20051;-66
2023/06/14 12:05:25;;;;;;;3.80;1.75;;;33.30;54.90;;;;;;5117179;27;20047;-67
2023/06/14 12:07:58;;;;;;;4.28;1.90;;;33.30;55.10;;;;;;5116231;27;20121;-68
2023/06/14 12:10:24;;;;;;;2.83;1.50;;;33.40;55.10;;;;;;5099519;27;20097;-66
2023/06/14 12:12:50;;;;;;;2.75;1.50;;;33.50;55.40;;;;;;5118575;27;22209;-68
2023/06/14 12:15:16;;;;;;;3.47;1.75;;;33.80;55.90;;;;;;5118595;27;20122;-67
2023/06/14 12:17:43;;;;;;;3.88;1.63;;;34.00;54.40;;;;;;5115385;27;20087;-67
2023/06/14 12:20:16;;;;;;;7.30;1.70;;;34.10;53.60;;;;;;5100943;27;20133;-67
2023/06/14 12:22:56;;;;;;;6.43;1.80;;;34.20;54.20;;;;;;5100907;27;20446;-68
2023/06/14 12:25:31;;;;;;;9.77;1.65;;;34.10;53.90;;;;;;5101074;27;20424;-67
2023/06/14 12:27:57;;;;;;;9.85;2.08;;;34.20;54.20;;;;;;5131180;27;20050;-67
2023/06/14 12:30:23;;;;;;;5.57;1.83;;;34.10;53.90;;;;;;5100528;27;20078;-67
2023/06/14 12:32:51;;;;;;;3.90;1.83;;;33.90;53.20;;;;;;5131662;27;20130;-67
2023/06/14 12:35:17;;;;;;;3.53;1.75;;;33.90;53.60;;;;;;5113682;27;20118;-68
2023/06/14 12:37:43;;;;;;;4.90;1.50;;;34.00;53.70;;;;;;5117210;27;20130;-68
2023/06/14 12:40:11;;;;;;;4.40;1.50;;;34.20;54.00;;;;;;5115357;27;20039;-67
2023/06/14 12:42:37;;;;;;;2.72;1.67;;;34.40;53.90;;;;;;5113950;27;20769;-68
2023/06/14 12:45:03;;;;;;;5.20;1.65;;;34.40;53.40;;;;;;5096072;27;20137;-67
2023/06/14 12:47:29;;;;;;;3.20;1.30;;;34.60;53.50;;;;;;5135596;27;20457;-66
2023/06/14 12:49:55;;;;;;;3.60;1.65;;;34.70;53.00;;;;;;5097992;27;20103;-67
2023/06/14 12:52:21;;;;;;;3.78;1.50;;;34.50;52.90;;;;;;5114632;27;20135;-68